createdAt,value
2023-03-15T00:00:02.754Z,4.03
2023-03-15T00:02:53.453Z,3.98
2023-03-15T00:05:24.247Z,3.95
2023-03-15T00:07:54.819Z,3.95
2023-03-15T00:10:25.762Z,3.97
2023-03-15T00:12:56.845Z,3.97
2023-03-15T00:15:27.598Z,3.96
2023-03-15T00:17:58.304Z,3.96
2023-03-15T00:20:29.138Z,3.94
2023-03-15T00:22:59.765Z,3.95
2023-03-15T00:25:30.891Z,3.97
2023-03-15T00:28:01.608Z,3.98
2023-03-15T00:30:32.402Z,3.98
2023-03-15T00:33:05.766Z,3.98
2023-03-15T00:35:39.540Z,3.94
2023-03-15T00:38:11.102Z,3.93
2023-03-15T00:40:41.985Z,3.92
2023-03-15T00:43:17.903Z,3.90
2023-03-15T00:45:49.181Z,3.89
2023-03-15T00:48:19.856Z,3.87
2023-03-15T00:50:50.547Z,3.84
2023-03-15T00:53:22.592Z,3.80
2023-03-15T00:55:53.277Z,3.78
2023-03-15T00:58:24.901Z,3.76
2023-03-15T01:00:57.286Z,3.74
2023-03-15T01:03:28.347Z,3.72
2023-03-15T01:05:59.471Z,3.67
2023-03-15T01:08:30.281Z,3.63
2023-03-15T01:11:05.404Z,3.63
2023-03-15T01:13:36.357Z,3.60
2023-03-15T01:16:08.661Z,3.55
2023-03-15T01:18:38.481Z,3.50
2023-03-15T01:21:12.837Z,3.47
2023-03-15T01:23:44.085Z,3.43
2023-03-15T01:26:16.093Z,3.37
2023-03-15T01:28:48.309Z,3.32
2023-03-15T01:31:21.277Z,3.30
2023-03-15T01:33:52.508Z,3.26
2023-03-15T01:36:23.711Z,3.24
2023-03-15T01:38:55.275Z,3.24
2023-03-15T01:41:31.314Z,3.22
2023-03-15T01:44:02.102Z,3.25
2023-03-15T01:46:35.847Z,3.21
2023-03-15T01:49:23.142Z,3.22
2023-03-15T01:51:58.450Z,3.23
2023-03-15T01:54:35.091Z,3.23
2023-03-15T01:57:09.788Z,3.22
2023-03-15T01:59:45.310Z,3.23
2023-03-15T02:02:16.861Z,3.23
2023-03-15T02:04:51.845Z,3.24
2023-03-15T02:07:27.116Z,3.23
2023-03-15T02:10:03.386Z,3.22
2023-03-15T02:12:39.696Z,3.18
2023-03-15T02:15:12.950Z,3.14
2023-03-15T02:17:46.751Z,3.11
2023-03-15T02:20:27.542Z,3.08
2023-03-15T02:23:01.265Z,3.03
2023-03-15T02:25:40.772Z,3.00
2023-03-15T02:28:14.897Z,3.00
2023-03-15T02:30:47.696Z,3.01
2023-03-15T02:33:24.152Z,3.01
2023-03-15T02:35:58.071Z,3.00
2023-03-15T02:38:28.898Z,2.97
2023-03-15T02:40:59.843Z,2.93
2023-03-15T02:43:33.082Z,2.85
2023-03-15T02:46:05.555Z,2.88
2023-03-15T02:48:37.878Z,2.87
2023-03-15T02:51:17.491Z,2.88
2023-03-15T02:53:48.304Z,2.90
2023-03-15T02:56:19.365Z,2.93
2023-03-15T02:58:50.775Z,2.91
2023-03-15T03:01:21.875Z,2.90
2023-03-15T03:03:52.637Z,2.90
2023-03-15T03:06:23.830Z,2.88
2023-03-15T03:08:54.781Z,2.85
2023-03-15T03:11:26.581Z,2.86
2023-03-15T03:13:59.526Z,2.87
2023-03-15T03:16:32.131Z,2.91
2023-03-15T03:19:04.194Z,2.90
2023-03-15T03:21:38.253Z,2.87
2023-03-15T03:24:10.046Z,2.87
2023-03-15T03:26:40.662Z,2.83
2023-03-15T03:29:11.730Z,2.72
2023-03-15T03:31:42.395Z,2.66
2023-03-15T03:34:15.771Z,2.62
2023-03-15T03:36:48.554Z,2.62
2023-03-15T03:39:22.234Z,2.64
2023-03-15T03:41:52.994Z,2.64
2023-03-15T03:44:24.554Z,2.64
2023-03-15T03:46:55.382Z,2.60
2023-03-15T03:49:26.244Z,2.58
2023-03-15T03:51:57.113Z,2.53
2023-03-15T03:54:28.446Z,2.48
2023-03-15T03:56:59.240Z,2.44
2023-03-15T03:59:33.336Z,2.41
2023-03-15T04:02:08.456Z,2.40
2023-03-15T04:04:41.391Z,2.32
2023-03-15T04:07:17.121Z,2.30
2023-03-15T04:09:48.145Z,2.27
2023-03-15T04:12:18.948Z,2.27
2023-03-15T04:14:51.359Z,2.29
2023-03-15T04:17:23.312Z,2.32
2023-03-15T04:19:54.174Z,2.30
2023-03-15T04:22:29.775Z,2.30
2023-03-15T04:25:21.771Z,2.31
2023-03-15T04:28:02.853Z,2.27
2023-03-15T04:31:10.773Z,2.23
2023-03-15T04:34:02.367Z,2.22
2023-03-15T04:36:54.849Z,2.21
2023-03-15T04:39:52.584Z,2.18
2023-03-15T04:42:46.631Z,2.12
2023-03-15T04:45:40.478Z,2.10
2023-03-15T04:48:26.775Z,2.10
2023-03-15T04:51:10.254Z,2.10
2023-03-15T04:53:46.472Z,2.13
2023-03-15T04:56:37.817Z,2.15
2023-03-15T04:59:27.848Z,2.12
2023-03-15T05:02:17.401Z,2.11
2023-03-15T05:05:14.676Z,2.11
2023-03-15T05:08:08.246Z,2.11
2023-03-15T05:10:50.026Z,2.11
2023-03-15T05:13:47.598Z,2.13
2023-03-15T05:16:36.806Z,2.12
2023-03-15T05:19:20.198Z,2.12
2023-03-15T05:22:05.279Z,2.11
2023-03-15T05:24:54.699Z,2.10
2023-03-15T05:27:48.184Z,2.09
2023-03-15T05:30:42.687Z,2.08
2023-03-15T05:33:26.267Z,2.08
2023-03-15T05:36:31.491Z,2.10
2023-03-15T05:39:22.959Z,2.10
2023-03-15T05:42:15.726Z,2.11
2023-03-15T05:45:03.426Z,2.13
2023-03-15T05:48:00.636Z,2.12
2023-03-15T05:50:43.681Z,2.14
2023-03-15T05:53:45.314Z,2.20
2023-03-15T05:56:43.358Z,2.22
2023-03-15T05:59:40.440Z,2.29
2023-03-15T06:02:27.978Z,2.34
2023-03-15T06:05:11.499Z,2.40
2023-03-15T06:07:42.142Z,2.47
2023-03-15T06:10:14.256Z,2.53
2023-03-15T06:12:45.770Z,2.60
2023-03-15T06:15:16.962Z,2.66
2023-03-15T06:17:48.082Z,2.74
2023-03-15T06:20:20.330Z,2.94
2023-03-15T06:22:51.307Z,3.23
2023-03-15T06:25:45.271Z,3.66
2023-03-15T06:28:16.051Z,4.11
2023-03-15T06:30:51.139Z,4.53
2023-03-15T06:33:24.370Z,4.94
2023-03-15T06:35:54.056Z,5.31
2023-03-15T06:38:25.144Z,5.90
2023-03-15T06:40:58.374Z,6.34
2023-03-15T06:43:30.655Z,7.04
2023-03-15T06:46:01.581Z,7.63
2023-03-15T06:48:32.624Z,7.63
2023-03-15T06:51:04.098Z,7.62
2023-03-15T06:53:36.156Z,7.61
2023-03-15T06:56:08.397Z,7.63
2023-03-15T06:58:39.025Z,7.69
2023-03-15T07:01:12.543Z,7.72
2023-03-15T07:03:43.739Z,7.79
2023-03-15T07:06:14.570Z,7.84
2023-03-15T07:08:45.219Z,7.95
2023-03-15T07:11:16.089Z,8.04
2023-03-15T07:13:46.866Z,8.16
2023-03-15T07:16:17.512Z,8.33
2023-03-15T07:18:48.406Z,8.59
2023-03-15T07:21:19.243Z,8.85
2023-03-15T07:23:49.848Z,9.00
2023-03-15T07:26:20.610Z,9.03
2023-03-15T07:28:51.366Z,9.10
2023-03-15T07:31:22.492Z,9.22
2023-03-15T07:33:53.245Z,9.43
2023-03-15T07:36:23.964Z,9.63
2023-03-15T07:38:54.585Z,9.73
2023-03-15T07:41:25.541Z,9.86
2023-03-15T07:44:01.145Z,10.06
2023-03-15T07:46:32.015Z,10.16
2023-03-15T07:49:02.862Z,10.25
2023-03-15T07:51:33.605Z,10.22
2023-03-15T07:54:04.228Z,10.09
2023-03-15T07:56:35.053Z,10.05
2023-03-15T07:59:05.697Z,10.03
2023-03-15T08:01:36.477Z,9.78
2023-03-15T08:04:07.402Z,9.62
2023-03-15T08:06:38.094Z,9.67
2023-03-15T08:09:08.865Z,9.66
2023-03-15T08:11:40.088Z,9.51
2023-03-15T08:14:10.763Z,9.45
2023-03-15T08:16:41.938Z,9.48
2023-03-15T08:19:13.202Z,9.54
2023-03-15T08:21:45.305Z,9.53
2023-03-15T08:24:16.433Z,9.33
2023-03-15T08:26:47.132Z,9.05
2023-03-15T08:29:17.959Z,8.76
2023-03-15T08:31:48.725Z,8.54
2023-03-15T08:34:19.582Z,8.39
2023-03-15T08:36:51.165Z,8.20
2023-03-15T08:39:23.983Z,8.05
2023-03-15T08:41:54.114Z,7.87
2023-03-15T08:44:24.850Z,7.76
2023-03-15T08:46:55.626Z,7.62
2023-03-15T08:49:26.752Z,7.42
2023-03-15T08:51:57.424Z,7.13
2023-03-15T08:54:28.434Z,6.78
2023-03-15T08:56:59.314Z,6.47
2023-03-15T08:59:32.031Z,6.22
2023-03-15T09:02:04.095Z,5.94
2023-03-15T09:04:35.826Z,5.77
2023-03-15T09:07:06.733Z,5.65
2023-03-15T09:09:37.532Z,5.60
2023-03-15T09:12:09.506Z,5.56
2023-03-15T09:14:40.249Z,5.47
2023-03-15T09:17:11.300Z,5.40
2023-03-15T09:19:42.298Z,5.38
2023-03-15T09:22:17.226Z,5.37
2023-03-15T09:24:54.219Z,5.40
2023-03-15T09:27:24.829Z,5.41
2023-03-15T09:29:55.588Z,5.44
2023-03-15T09:32:26.295Z,5.49
2023-03-15T09:34:57.387Z,5.59
2023-03-15T09:37:28.927Z,5.70
2023-03-15T09:39:59.591Z,5.83
2023-03-15T09:42:38.915Z,5.95
2023-03-15T09:45:19.349Z,6.04
2023-03-15T09:48:01.580Z,6.12
2023-03-15T09:50:37.914Z,6.12
2023-03-15T09:53:15.353Z,6.09
2023-03-15T09:55:49.820Z,6.08
2023-03-15T09:58:25.402Z,6.03
2023-03-15T10:00:59.545Z,6.01
2023-03-15T10:03:36.076Z,5.96
2023-03-15T10:06:14.264Z,5.90
2023-03-15T10:08:45.440Z,5.82
2023-03-15T10:11:22.296Z,5.78
2023-03-15T10:14:10.031Z,5.71
2023-03-15T10:16:46.381Z,5.63
2023-03-15T10:19:33.301Z,5.55
2023-03-15T10:22:14.088Z,5.47
2023-03-15T10:24:52.292Z,5.44
2023-03-15T10:27:27.623Z,5.44
2023-03-15T10:29:59.824Z,5.43
2023-03-15T10:32:38.978Z,5.43
2023-03-15T10:35:17.651Z,5.40
2023-03-15T10:37:48.530Z,5.37
2023-03-15T10:40:44.299Z,5.37
2023-03-15T10:43:23.732Z,5.38
2023-03-15T10:46:05.387Z,5.35
2023-03-15T10:48:37.615Z,5.31
2023-03-15T10:51:17.123Z,5.33
2023-03-15T10:53:56.589Z,5.40
2023-03-15T10:56:29.156Z,5.48
2023-03-15T10:59:12.238Z,5.56
2023-03-15T11:01:44.510Z,5.63
2023-03-15T11:04:22.687Z,5.70
2023-03-15T11:07:03.503Z,5.79
2023-03-15T11:09:43.521Z,5.85
2023-03-15T11:12:24.294Z,5.88
2023-03-15T11:14:57.925Z,5.89
2023-03-15T11:17:31.865Z,5.91
2023-03-15T11:20:13.075Z,5.90
2023-03-15T11:22:44.118Z,5.90
2023-03-15T11:25:18.659Z,5.90
2023-03-15T11:27:53.628Z,5.92
2023-03-15T11:30:28.657Z,5.97
2023-03-15T11:33:10.068Z,6.03
2023-03-15T11:35:48.316Z,6.07
2023-03-15T11:38:26.234Z,6.06
2023-03-15T11:41:01.012Z,6.10
2023-03-15T11:43:41.434Z,6.18
2023-03-15T11:46:19.964Z,6.24
2023-03-15T11:48:55.161Z,6.23
2023-03-15T11:51:25.985Z,6.22
2023-03-15T11:54:15.490Z,6.21
2023-03-15T11:56:53.364Z,6.20
2023-03-15T11:59:29.451Z,6.22
2023-03-15T12:02:08.794Z,6.30
2023-03-15T12:04:45.649Z,6.35
2023-03-15T12:07:58.052Z,6.35
2023-03-15T12:10:47.461Z,6.31
2023-03-15T12:13:25.809Z,6.32
2023-03-15T12:15:57.671Z,6.35
2023-03-15T12:18:43.827Z,6.37
2023-03-15T12:21:22.364Z,6.38
2023-03-15T12:24:01.763Z,6.41
2023-03-15T12:26:44.675Z,6.40
2023-03-15T12:29:25.949Z,6.40
2023-03-15T12:32:07.761Z,6.44
2023-03-15T12:34:46.496Z,6.55
2023-03-15T12:37:21.721Z,6.64
2023-03-15T12:40:01.898Z,6.72
2023-03-15T12:43:09.942Z,6.85
2023-03-15T12:45:46.563Z,6.94
2023-03-15T12:48:27.130Z,6.98
2023-03-15T12:51:38.727Z,7.02
2023-03-15T12:57:26.959Z,7.02
2023-03-15T13:00:00.946Z,6.99
2023-03-15T13:02:43.858Z,6.97
2023-03-15T13:05:21.259Z,7.00
2023-03-15T13:07:57.643Z,7.02
2023-03-15T13:10:40.677Z,7.04
2023-03-15T13:13:26.468Z,7.06
2023-03-15T13:16:17.925Z,7.18
2023-03-15T13:18:59.339Z,7.35
2023-03-15T13:21:35.518Z,7.51
2023-03-15T13:24:13.966Z,7.60
2023-03-15T13:26:56.787Z,7.56
2023-03-15T13:29:31.344Z,7.49
2023-03-15T13:32:15.717Z,7.44
2023-03-15T13:34:48.453Z,7.52
2023-03-15T13:37:22.873Z,7.69
2023-03-15T13:40:00.761Z,7.77
2023-03-15T13:42:31.531Z,7.88
2023-03-15T13:45:16.029Z,8.02
2023-03-15T13:47:48.015Z,8.18
2023-03-15T13:50:22.205Z,8.29
2023-03-15T13:52:52.923Z,8.25
2023-03-15T13:55:25.607Z,8.17
2023-03-15T13:58:00.986Z,8.00
2023-03-15T14:00:34.941Z,7.85
2023-03-15T14:03:13.187Z,7.75
2023-03-15T14:05:49.380Z,7.69
2023-03-15T14:08:25.757Z,7.65
2023-03-15T14:11:10.148Z,7.58
2023-03-15T14:13:52.822Z,7.61
2023-03-15T14:16:35.650Z,7.70
2023-03-15T14:19:20.657Z,7.77
2023-03-15T14:21:53.242Z,7.84
2023-03-15T14:24:31.044Z,7.86
2023-03-15T14:27:06.361Z,7.85
2023-03-15T14:29:39.931Z,7.80
2023-03-15T14:32:27.514Z,7.76
2023-03-15T14:35:03.734Z,7.74
2023-03-15T14:37:40.196Z,7.75
2023-03-15T14:40:20.962Z,7.79
2023-03-15T14:42:52.653Z,7.72
2023-03-15T14:45:24.063Z,7.68
2023-03-15T14:47:59.108Z,7.69
2023-03-15T14:50:34.325Z,7.73
2023-03-15T14:53:07.401Z,7.74
2023-03-15T14:55:39.078Z,7.78
2023-03-15T14:58:15.385Z,7.83
2023-03-15T15:00:48.090Z,7.90
2023-03-15T15:03:19.188Z,7.99
2023-03-15T15:05:48.338Z,8.04
2023-03-15T15:08:23.219Z,8.02
2023-03-15T15:10:57.032Z,7.94
2023-03-15T15:13:29.313Z,7.79
2023-03-15T15:16:00.797Z,7.64
2023-03-15T15:18:33.002Z,7.52
2023-03-15T15:21:05.523Z,7.46
2023-03-15T15:23:54.874Z,7.43
2023-03-15T15:26:29.797Z,7.43
2023-03-15T15:29:00.824Z,7.46
2023-03-15T15:31:34.348Z,7.50
2023-03-15T15:34:05.419Z,7.51
2023-03-15T15:36:39.470Z,7.50
2023-03-15T15:39:21.421Z,7.48
2023-03-15T15:41:52.972Z,7.46
2023-03-15T15:44:26.085Z,7.44
2023-03-15T15:46:57.205Z,7.42
2023-03-15T15:49:27.907Z,7.42
2023-03-15T15:51:58.844Z,7.41
2023-03-15T15:54:31.647Z,7.38
2023-03-15T15:57:03.761Z,7.35
2023-03-15T15:59:34.392Z,7.36
2023-03-15T16:02:13.907Z,7.34
2023-03-15T16:04:44.770Z,7.27
2023-03-15T16:07:16.510Z,7.20
2023-03-15T16:09:49.370Z,7.18
2023-03-15T16:12:19.461Z,7.15
2023-03-15T16:14:51.025Z,7.10
2023-03-15T16:17:23.776Z,7.06
2023-03-15T16:19:55.355Z,7.02
2023-03-15T16:22:29.638Z,6.99
2023-03-15T16:25:01.702Z,6.94
2023-03-15T16:27:32.739Z,6.92
2023-03-15T16:30:04.626Z,6.89
2023-03-15T16:32:44.025Z,6.86
2023-03-15T16:35:16.618Z,6.82
2023-03-15T16:37:48.346Z,6.77
2023-03-15T16:40:23.472Z,6.74
2023-03-15T16:42:54.321Z,6.70
2023-03-15T16:45:26.055Z,6.67
2023-03-15T16:47:56.744Z,6.64
2023-03-15T16:50:27.931Z,6.62
2023-03-15T16:53:00.991Z,6.58
2023-03-15T16:55:33.940Z,6.53
2023-03-15T16:58:04.577Z,6.48
2023-03-15T17:00:35.448Z,6.43
2023-03-15T17:03:06.174Z,6.39
2023-03-15T17:05:37.203Z,6.35
2023-03-15T17:08:11.416Z,6.32
2023-03-15T17:10:43.210Z,6.27
2023-03-15T17:13:17.239Z,6.22
2023-03-15T17:15:47.991Z,6.17
2023-03-15T17:18:22.700Z,6.11
2023-03-15T17:20:53.618Z,6.06
2023-03-15T17:23:24.411Z,6.00
2023-03-15T17:25:55.216Z,5.94
2023-03-15T17:28:25.863Z,5.89
2023-03-15T17:31:14.064Z,5.84
2023-03-15T17:33:47.707Z,5.79
2023-03-15T17:36:22.217Z,5.74
2023-03-15T17:38:54.263Z,5.70
2023-03-15T17:41:28.025Z,5.65
2023-03-15T17:43:58.944Z,5.74
2023-03-15T17:46:33.068Z,6.25
2023-03-15T17:49:04.966Z,6.30
2023-03-15T17:51:37.800Z,6.17
2023-03-15T17:54:16.886Z,6.08
2023-03-15T17:56:47.700Z,5.97
2023-03-15T17:59:18.405Z,5.89
2023-03-15T18:01:49.272Z,5.81
2023-03-15T18:04:21.910Z,5.74
2023-03-15T18:06:54.062Z,5.68
2023-03-15T18:09:26.378Z,5.61
2023-03-15T18:11:57.130Z,5.55
2023-03-15T18:14:27.776Z,5.49
2023-03-15T18:16:59.459Z,5.43
2023-03-15T18:19:30.292Z,5.39
2023-03-15T18:22:00.905Z,5.33
2023-03-15T18:24:34.401Z,5.28
2023-03-15T18:27:05.102Z,5.21
2023-03-15T18:29:35.842Z,5.15
2023-03-15T18:32:07.026Z,5.04
2023-03-15T18:34:37.906Z,4.88
2023-03-15T18:37:09.809Z,4.77
2023-03-15T18:39:40.688Z,4.69
2023-03-15T18:42:12.119Z,4.62
2023-03-15T18:44:43.971Z,4.56
2023-03-15T18:47:15.696Z,4.50
2023-03-15T18:49:46.475Z,4.45
2023-03-15T18:52:17.644Z,4.42
2023-03-15T18:54:48.278Z,4.39
2023-03-15T18:57:20.535Z,4.35
2023-03-15T18:59:51.403Z,4.31
2023-03-15T19:02:22.071Z,4.28
2023-03-15T19:04:52.797Z,4.26
2023-03-15T19:07:23.426Z,4.23
2023-03-15T19:09:54.163Z,4.21
2023-03-15T19:12:24.880Z,4.17
2023-03-15T19:14:55.627Z,4.14
2023-03-15T19:17:26.631Z,4.10
2023-03-15T19:19:57.399Z,4.03
2023-03-15T19:22:31.103Z,3.98
2023-03-15T19:25:02.133Z,3.92
2023-03-15T19:27:33.017Z,3.87
2023-03-15T19:30:03.687Z,3.82
2023-03-15T19:32:34.377Z,3.78
2023-03-15T19:35:06.093Z,3.72
2023-03-15T19:37:38.277Z,3.65
2023-03-15T19:40:12.030Z,3.66
2023-03-15T19:42:42.785Z,3.63
2023-03-15T19:45:14.567Z,3.61
2023-03-15T19:47:45.270Z,3.58
2023-03-15T19:50:16.794Z,3.50
2023-03-15T19:52:47.534Z,3.45
2023-03-15T19:55:20.387Z,3.40
2023-03-15T19:57:51.240Z,3.34
2023-03-15T20:00:25.198Z,3.29
2023-03-15T20:02:56.054Z,3.22
2023-03-15T20:05:26.819Z,3.18
2023-03-15T20:07:57.575Z,3.16
2023-03-15T20:10:28.265Z,3.14
2023-03-15T20:12:59.264Z,3.13
2023-03-15T20:15:30.690Z,3.12
2023-03-15T20:18:02.517Z,3.12
2023-03-15T20:20:33.193Z,3.09
2023-03-15T20:23:03.889Z,3.07
2023-03-15T20:25:35.525Z,3.04
2023-03-15T20:28:06.422Z,3.02
2023-03-15T20:30:39.395Z,3.01
2023-03-15T20:33:10.602Z,3.00
2023-03-15T20:35:41.438Z,3.03
2023-03-15T20:38:13.232Z,3.03
2023-03-15T20:40:46.100Z,2.97
2023-03-15T20:43:17.319Z,2.90
2023-03-15T20:45:48.043Z,2.81
2023-03-15T20:48:22.011Z,2.74
2023-03-15T20:50:53.316Z,2.65
2023-03-15T20:53:24.551Z,2.56
2023-03-15T20:55:55.260Z,2.48
2023-03-15T20:58:26.252Z,2.41
2023-03-15T21:01:06.977Z,2.34
2023-03-15T21:03:38.372Z,2.30
2023-03-15T21:06:10.338Z,2.31
2023-03-15T21:08:41.700Z,2.31
2023-03-15T21:11:12.413Z,2.25
2023-03-15T21:13:43.195Z,2.20
2023-03-15T21:16:15.430Z,2.12
2023-03-15T21:18:51.776Z,2.05
2023-03-15T21:21:23.256Z,2.03
2023-03-15T21:23:54.884Z,1.98
2023-03-15T21:26:25.593Z,1.97
2023-03-15T21:28:56.840Z,1.95
2023-03-15T21:31:27.554Z,1.95
2023-03-15T21:33:58.188Z,1.91
2023-03-15T21:36:28.733Z,1.90
2023-03-15T21:38:59.847Z,1.92
2023-03-15T21:41:31.808Z,1.94
2023-03-15T21:44:02.590Z,1.96
2023-03-15T21:46:33.731Z,1.93
2023-03-15T21:49:05.315Z,1.85
2023-03-15T21:51:36.031Z,1.74
2023-03-15T21:54:07.066Z,1.71
2023-03-15T21:56:37.791Z,1.70
2023-03-15T21:59:09.227Z,1.68
2023-03-15T22:01:39.953Z,1.65
2023-03-15T22:04:10.639Z,1.67
2023-03-15T22:06:41.258Z,1.68
2023-03-15T22:09:11.926Z,2.08
2023-03-15T22:11:42.553Z,2.24
2023-03-15T22:14:13.361Z,2.22
2023-03-15T22:16:44.346Z,2.13
2023-03-15T22:19:15.064Z,1.96
2023-03-15T22:21:45.695Z,1.86
2023-03-15T22:24:16.576Z,1.81
2023-03-15T22:26:47.169Z,1.75
2023-03-15T22:29:17.921Z,1.66
2023-03-15T22:31:48.502Z,1.58
2023-03-15T22:34:19.674Z,1.54
2023-03-15T22:36:50.288Z,1.54
2023-03-15T22:39:22.163Z,1.69
2023-03-15T22:41:52.873Z,1.70
2023-03-15T22:44:23.511Z,1.69
2023-03-15T22:46:54.163Z,1.61
2023-03-15T22:49:25.001Z,1.51
2023-03-15T22:51:55.646Z,1.46
2023-03-15T22:54:26.366Z,1.83
2023-03-15T22:56:56.994Z,1.87
2023-03-15T22:59:29.104Z,1.83
2023-03-15T23:01:59.800Z,1.78
2023-03-15T23:04:30.999Z,1.73
2023-03-15T23:07:01.796Z,1.66
2023-03-15T23:09:32.511Z,1.56
2023-03-15T23:12:03.269Z,1.51
2023-03-15T23:14:34.719Z,1.46
2023-03-15T23:17:05.622Z,1.41
2023-03-15T23:19:36.238Z,1.36
2023-03-15T23:22:08.062Z,1.33
2023-03-15T23:24:38.729Z,1.30
2023-03-15T23:27:09.623Z,1.26
2023-03-15T23:29:53.788Z,1.22
2023-03-15T23:32:26.172Z,1.18
2023-03-15T23:34:56.834Z,1.14
2023-03-15T23:37:28.571Z,1.09
2023-03-15T23:39:59.356Z,1.06
2023-03-15T23:42:32.543Z,1.05
2023-03-15T23:45:05.914Z,1.03
2023-03-15T23:47:36.864Z,0.96
2023-03-15T23:50:09.576Z,0.90
2023-03-15T23:52:40.240Z,0.90
2023-03-15T23:55:12.168Z,0.90
2023-03-15T23:57:43.476Z,0.85
